createdAt,value
2023-01-13T00:00:17.183Z,96.00
2023-01-13T00:00:49.932Z,95.90
2023-01-13T00:01:24.366Z,95.90
2023-01-13T00:01:56.101Z,95.80
2023-01-13T00:02:27.930Z,95.90
2023-01-13T00:02:59.715Z,95.80
2023-01-13T00:03:31.495Z,95.90
2023-01-13T00:04:04.903Z,96.50
2023-01-13T00:04:36.747Z,95.90
2023-01-13T00:05:09.664Z,95.80
2023-01-13T00:05:41.443Z,95.90
2023-01-13T00:06:16.590Z,95.90
2023-01-13T00:06:48.336Z,95.90
2023-01-13T00:07:20.734Z,95.80
2023-01-13T00:07:52.671Z,95.80
2023-01-13T00:08:24.393Z,95.80
2023-01-13T00:08:56.432Z,95.80
2023-01-13T00:09:28.199Z,95.80
2023-01-13T00:09:59.956Z,95.90
2023-01-13T00:10:34.953Z,95.80
2023-01-13T00:11:06.884Z,95.80
2023-01-13T00:11:38.613Z,96.00
2023-01-13T00:12:10.363Z,95.80
2023-01-13T00:12:43.348Z,96.30
2023-01-13T00:13:15.211Z,95.80
2023-01-13T00:13:46.950Z,95.80
2023-01-13T00:14:18.853Z,95.90
2023-01-13T00:14:50.660Z,95.90
2023-01-13T00:15:22.449Z,95.90
2023-01-13T00:16:08.594Z,95.80
2023-01-13T00:16:40.404Z,95.80
2023-01-13T00:17:12.150Z,95.70
2023-01-13T00:17:43.893Z,95.80
2023-01-13T00:18:15.621Z,95.80
2023-01-13T00:18:48.479Z,96.30
2023-01-13T00:19:20.288Z,95.90
2023-01-13T00:19:52.102Z,95.90
2023-01-13T00:20:23.833Z,95.80
2023-01-13T00:21:03.928Z,95.80
2023-01-13T00:21:36.414Z,95.80
2023-01-13T00:22:08.150Z,95.80
2023-01-13T00:22:39.955Z,95.80
2023-01-13T00:23:11.752Z,95.70
2023-01-13T00:23:44.381Z,95.70
2023-01-13T00:24:16.127Z,95.70
2023-01-13T00:24:47.858Z,95.80
2023-01-13T00:25:20.008Z,95.70
2023-01-13T00:25:51.730Z,95.70
2023-01-13T00:26:26.711Z,95.80
2023-01-13T00:26:59.454Z,95.80
2023-01-13T00:27:31.505Z,95.70
2023-01-13T00:28:03.375Z,95.80
2023-01-13T00:28:35.164Z,95.70
2023-01-13T00:29:06.905Z,95.70
2023-01-13T00:29:38.704Z,95.70
2023-01-13T00:30:10.925Z,95.70
2023-01-13T00:30:43.348Z,95.70
2023-01-13T00:31:17.729Z,96.00
2023-01-13T00:31:50.308Z,96.00
2023-01-13T00:32:22.007Z,95.70
2023-01-13T00:32:54.324Z,95.70
2023-01-13T00:33:26.067Z,95.60
2023-01-13T00:33:59.751Z,95.70
2023-01-13T00:34:31.651Z,95.60
2023-01-13T00:35:03.723Z,95.70
2023-01-13T00:35:35.436Z,95.60
2023-01-13T00:36:09.111Z,95.50
2023-01-13T00:36:40.832Z,95.50
2023-01-13T00:37:14.565Z,95.50
2023-01-13T00:37:46.329Z,95.50
2023-01-13T00:38:18.061Z,95.60
2023-01-13T00:38:49.770Z,95.70
2023-01-13T00:39:21.631Z,95.50
2023-01-13T00:39:53.396Z,95.60
2023-01-13T00:40:25.142Z,95.60
2023-01-13T00:41:13.286Z,95.70
2023-01-13T00:42:08.095Z,95.50
2023-01-13T00:42:58.603Z,95.50
2023-01-13T00:43:32.532Z,95.50
2023-01-13T00:44:04.259Z,95.50
2023-01-13T00:44:36.042Z,95.60
2023-01-13T00:45:08.113Z,95.60
2023-01-13T00:45:39.838Z,95.60
2023-01-13T00:46:14.417Z,95.70
2023-01-13T00:46:46.265Z,95.80
2023-01-13T00:47:18.395Z,95.50
2023-01-13T00:47:50.125Z,95.60
2023-01-13T00:48:23.228Z,95.60
2023-01-13T00:48:55.010Z,95.60
2023-01-13T00:49:27.094Z,95.50
2023-01-13T00:49:58.846Z,95.60
2023-01-13T00:50:30.618Z,95.60
2023-01-13T00:51:08.585Z,95.60
2023-01-13T00:51:40.300Z,95.50
2023-01-13T00:52:12.344Z,95.60
2023-01-13T00:52:44.072Z,95.60
2023-01-13T00:53:16.988Z,95.50
2023-01-13T00:53:51.163Z,96.10
2023-01-13T00:54:22.960Z,95.60
2023-01-13T00:54:54.696Z,95.60
2023-01-13T00:55:27.231Z,95.60
2023-01-13T00:56:08.188Z,95.60
2023-01-13T00:56:41.230Z,95.60
2023-01-13T00:57:15.222Z,95.60
2023-01-13T00:57:46.983Z,95.60
2023-01-13T00:58:18.774Z,95.50
2023-01-13T00:58:51.894Z,95.60
2023-01-13T00:59:23.637Z,95.80
2023-01-13T00:59:55.475Z,95.50
2023-01-13T01:00:27.447Z,95.70
2023-01-13T01:01:12.003Z,95.90
2023-01-13T01:01:44.111Z,95.60
2023-01-13T01:02:16.073Z,95.90
2023-01-13T01:02:47.878Z,95.50
2023-01-13T01:03:19.627Z,95.80
2023-01-13T01:03:53.843Z,95.40
2023-01-13T01:04:25.785Z,95.80
2023-01-13T01:04:57.582Z,95.50
2023-01-13T01:05:29.332Z,95.50
2023-01-13T01:06:06.347Z,95.60
2023-01-13T01:06:38.435Z,95.50
2023-01-13T01:07:10.147Z,95.50
2023-01-13T01:07:41.906Z,95.50
2023-01-13T01:08:13.648Z,95.60
2023-01-13T01:08:46.456Z,95.50
2023-01-13T01:09:18.280Z,95.60
2023-01-13T01:09:50.104Z,95.50
2023-01-13T01:10:21.844Z,95.50
2023-01-13T01:11:04.233Z,95.40
2023-01-13T01:11:36.346Z,95.50
2023-01-13T01:12:08.304Z,95.50
2023-01-13T01:12:40.155Z,95.60
2023-01-13T01:13:15.000Z,95.50
2023-01-13T01:13:47.500Z,95.40
2023-01-13T01:14:19.254Z,95.40
2023-01-13T01:14:50.982Z,95.40
2023-01-13T01:15:22.835Z,95.40
2023-01-13T01:15:54.550Z,95.40
2023-01-13T01:16:28.655Z,95.40
2023-01-13T01:17:00.660Z,95.40
2023-01-13T01:17:32.407Z,95.50
2023-01-13T01:18:04.114Z,95.50
2023-01-13T01:18:38.110Z,95.40
2023-01-13T01:19:10.586Z,95.40
2023-01-13T01:19:42.327Z,95.40
2023-01-13T01:20:14.041Z,95.30
2023-01-13T01:20:45.777Z,95.70
2023-01-13T01:21:18.718Z,95.40
2023-01-13T01:21:50.463Z,95.30
2023-01-13T01:22:22.220Z,95.40
2023-01-13T01:22:53.943Z,95.70
2023-01-13T01:23:25.655Z,95.40
2023-01-13T01:24:03.226Z,95.50
2023-01-13T01:24:35.124Z,95.40
2023-01-13T01:25:07.452Z,95.50
2023-01-13T01:25:39.217Z,95.50
2023-01-13T01:26:21.457Z,95.40
2023-01-13T01:26:53.862Z,95.50
2023-01-13T01:27:25.611Z,95.50
2023-01-13T01:27:57.357Z,95.50
2023-01-13T01:28:29.618Z,95.50
2023-01-13T01:29:02.213Z,95.60
2023-01-13T01:29:34.065Z,95.50
2023-01-13T01:30:06.422Z,95.50
2023-01-13T01:30:39.520Z,95.70
2023-01-13T01:31:16.948Z,95.50
2023-01-13T01:31:48.708Z,95.50
2023-01-13T01:32:20.632Z,95.60
2023-01-13T01:32:52.461Z,95.60
2023-01-13T01:33:24.553Z,95.60
2023-01-13T01:33:56.367Z,95.60
2023-01-13T01:34:28.125Z,96.20
2023-01-13T01:34:59.839Z,95.70
2023-01-13T01:35:31.587Z,95.70
2023-01-13T01:36:04.804Z,95.70
2023-01-13T01:36:36.665Z,95.70
2023-01-13T01:37:08.437Z,95.70
2023-01-13T01:37:40.943Z,95.70
2023-01-13T01:38:12.673Z,95.60
2023-01-13T01:38:45.748Z,95.60
2023-01-13T01:39:17.526Z,95.60
2023-01-13T01:39:49.343Z,95.50
2023-01-13T01:40:21.038Z,95.80
2023-01-13T01:40:52.919Z,95.80
2023-01-13T01:41:27.796Z,96.10
2023-01-13T01:42:18.004Z,95.60
2023-01-13T01:43:09.823Z,95.60
2023-01-13T01:44:02.271Z,95.60
2023-01-13T01:44:43.149Z,95.60
2023-01-13T01:45:20.986Z,95.50
2023-01-13T01:45:53.439Z,95.50
2023-01-13T01:46:34.326Z,95.50
2023-01-13T01:47:06.240Z,95.50
2023-01-13T01:47:38.561Z,95.50
2023-01-13T01:48:12.092Z,95.60
2023-01-13T01:48:43.888Z,95.50
2023-01-13T01:49:29.002Z,95.50
2023-01-13T01:50:02.361Z,95.50
2023-01-13T01:50:35.872Z,95.50
2023-01-13T01:51:12.470Z,95.50
2023-01-13T01:51:53.307Z,96.00
2023-01-13T01:52:34.734Z,95.50
2023-01-13T01:53:13.467Z,95.50
2023-01-13T01:53:45.706Z,95.50
2023-01-13T01:54:25.653Z,95.50
2023-01-13T01:55:06.596Z,95.50
2023-01-13T01:55:39.189Z,95.50
2023-01-13T01:56:11.288Z,95.50
2023-01-13T01:56:45.116Z,95.60
2023-01-13T01:57:26.505Z,95.50
2023-01-13T01:58:05.619Z,95.50
2023-01-13T01:58:47.140Z,95.50
2023-01-13T01:59:20.036Z,95.80
2023-01-13T01:59:53.224Z,95.50
2023-01-13T02:00:28.356Z,95.50
2023-01-13T02:01:00.324Z,95.50
2023-01-13T02:01:34.262Z,95.50
2023-01-13T02:02:06.513Z,95.80
2023-01-13T02:02:39.746Z,95.50
2023-01-13T02:03:11.776Z,95.50
2023-01-13T02:03:57.952Z,95.50
2023-01-13T02:04:37.763Z,95.50
2023-01-13T02:05:09.757Z,95.50
2023-01-13T02:05:41.788Z,95.70
2023-01-13T02:06:16.121Z,95.50
2023-01-13T02:06:48.999Z,95.40
2023-01-13T02:07:25.394Z,95.40
2023-01-13T02:07:59.548Z,95.40
2023-01-13T02:08:31.357Z,95.40
2023-01-13T02:09:03.407Z,95.40
2023-01-13T02:09:35.883Z,95.50
2023-01-13T02:10:11.181Z,95.50
2023-01-13T02:10:48.827Z,95.50
2023-01-13T02:11:51.185Z,95.50
2023-01-13T02:12:29.981Z,95.40
2023-01-13T02:13:06.202Z,95.50
2023-01-13T02:13:38.306Z,95.50
2023-01-13T02:14:10.232Z,95.50
2023-01-13T02:14:42.813Z,95.50
2023-01-13T02:15:22.244Z,95.50
2023-01-13T02:16:14.976Z,95.50
2023-01-13T02:17:11.911Z,95.50
2023-01-13T02:18:17.838Z,95.50
2023-01-13T02:19:12.641Z,95.50
2023-01-13T02:20:02.978Z,95.50
2023-01-13T02:20:45.217Z,95.50
2023-01-13T02:21:26.130Z,95.50
2023-01-13T02:22:14.876Z,95.50
2023-01-13T02:22:57.791Z,95.40
2023-01-13T02:24:19.508Z,95.50
2023-01-13T02:25:25.305Z,95.50
2023-01-13T02:26:34.331Z,95.50
2023-01-13T02:27:12.178Z,95.50
2023-01-13T02:27:58.789Z,95.50
2023-01-13T02:29:27.459Z,95.50
2023-01-13T02:30:26.545Z,95.50
2023-01-13T02:31:28.866Z,95.60
2023-01-13T02:32:21.029Z,95.60
2023-01-13T02:33:05.068Z,95.50
2023-01-13T02:33:48.783Z,95.50
2023-01-13T02:34:26.073Z,95.50
2023-01-13T02:35:27.311Z,95.50
2023-01-13T02:36:18.104Z,95.50
2023-01-13T02:37:12.092Z,95.60
2023-01-13T02:37:45.011Z,95.50
2023-01-13T02:38:22.866Z,95.50
2023-01-13T02:39:04.328Z,95.50
2023-01-13T02:39:58.417Z,95.50
2023-01-13T02:40:56.732Z,95.50
2023-01-13T02:42:01.357Z,95.50
2023-01-13T02:42:55.818Z,95.50
2023-01-13T02:43:53.400Z,95.60
2023-01-13T02:44:48.416Z,95.50
2023-01-13T02:45:26.069Z,95.40
2023-01-13T02:46:08.375Z,95.40
2023-01-13T02:46:44.401Z,95.50
2023-01-13T02:47:22.730Z,95.80
2023-01-13T02:47:59.290Z,95.50
2023-01-13T02:48:32.181Z,95.50
2023-01-13T02:49:10.166Z,95.50
2023-01-13T02:49:48.779Z,95.50
2023-01-13T02:50:27.767Z,95.50
2023-01-13T02:51:20.522Z,95.50
2023-01-13T02:51:56.026Z,95.50
2023-01-13T02:53:07.059Z,95.50
2023-01-13T02:53:45.885Z,95.70
2023-01-13T02:54:23.222Z,95.70
2023-01-13T02:55:03.325Z,95.80
2023-01-13T02:55:40.004Z,95.90
2023-01-13T02:56:16.299Z,95.60
2023-01-13T02:56:51.115Z,95.50
2023-01-13T02:57:26.371Z,95.50
2023-01-13T02:58:01.909Z,95.50
2023-01-13T02:58:36.773Z,95.50
2023-01-13T02:59:10.540Z,94.90
2023-01-13T02:59:43.303Z,95.50
2023-01-13T03:00:17.028Z,95.50
2023-01-13T03:00:49.634Z,95.50
2023-01-13T03:01:21.907Z,95.50
2023-01-13T03:01:57.289Z,95.90
2023-01-13T03:02:29.345Z,95.50
2023-01-13T03:03:01.480Z,95.50
2023-01-13T03:03:33.331Z,95.50
2023-01-13T03:04:34.807Z,95.50
2023-01-13T03:05:07.278Z,95.50
2023-01-13T03:05:43.825Z,95.50
2023-01-13T03:06:45.785Z,95.50
2023-01-13T03:07:29.545Z,95.50
2023-01-13T03:08:42.776Z,95.50
2023-01-13T03:09:29.825Z,95.50
2023-01-13T03:10:23.919Z,95.50
2023-01-13T03:11:03.821Z,95.50
2023-01-13T03:11:51.834Z,95.50
2023-01-13T03:12:44.846Z,95.50
2023-01-13T03:13:48.972Z,95.50
2023-01-13T03:14:35.423Z,95.50
2023-01-13T03:15:40.713Z,95.50
2023-01-13T03:16:31.674Z,95.50
2023-01-13T03:17:21.954Z,95.50
2023-01-13T03:18:16.036Z,95.50
2023-01-13T03:18:57.392Z,95.50
2023-01-13T03:19:58.035Z,95.70
2023-01-13T03:20:40.090Z,95.50
2023-01-13T03:21:26.889Z,95.50
2023-01-13T03:22:18.585Z,95.40
2023-01-13T03:23:05.415Z,95.40
2023-01-13T03:24:06.335Z,95.50
2023-01-13T03:24:47.210Z,95.50
2023-01-13T03:25:28.045Z,95.50
2023-01-13T03:26:08.368Z,95.10
2023-01-13T03:26:49.199Z,95.50
2023-01-13T03:27:35.555Z,95.50
2023-01-13T03:28:18.344Z,95.50
2023-01-13T03:28:57.832Z,95.50
2023-01-13T03:29:41.745Z,95.60
2023-01-13T03:30:24.022Z,95.70
2023-01-13T03:31:08.065Z,95.50
2023-01-13T03:31:46.810Z,95.50
2023-01-13T03:32:26.676Z,95.40
2023-01-13T03:33:21.642Z,95.50
2023-01-13T03:34:11.365Z,95.50
2023-01-13T03:34:54.772Z,95.50
2023-01-13T03:35:33.483Z,95.50
2023-01-13T03:36:09.021Z,95.50
2023-01-13T03:36:44.102Z,95.50
2023-01-13T03:37:21.212Z,95.50
2023-01-13T03:38:02.761Z,95.50
2023-01-13T03:38:42.601Z,95.50
2023-01-13T03:39:21.427Z,95.50
2023-01-13T03:40:03.709Z,95.50
2023-01-13T03:40:49.592Z,95.50
2023-01-13T03:41:36.638Z,95.50
2023-01-13T03:42:14.044Z,95.40
2023-01-13T03:43:13.536Z,95.50
2023-01-13T03:44:16.251Z,95.50
2023-01-13T03:44:57.629Z,95.50
2023-01-13T03:45:34.176Z,95.50
2023-01-13T03:46:22.127Z,95.70
2023-01-13T03:47:22.201Z,95.50
2023-01-13T03:47:59.708Z,95.20
2023-01-13T03:48:36.530Z,95.50
2023-01-13T03:49:14.043Z,95.50
2023-01-13T03:49:49.989Z,95.50
2023-01-13T03:50:32.724Z,95.50
2023-01-13T03:51:13.183Z,95.50
2023-01-13T03:51:53.625Z,95.50
2023-01-13T03:52:33.540Z,95.70
2023-01-13T03:53:12.707Z,95.40
2023-01-13T03:53:51.350Z,95.40
2023-01-13T03:54:27.898Z,95.40
2023-01-13T03:55:06.940Z,95.40
2023-01-13T03:55:45.533Z,95.40
2023-01-13T03:56:25.568Z,95.40
2023-01-13T03:57:04.044Z,95.50
2023-01-13T03:57:59.825Z,95.50
2023-01-13T03:58:38.631Z,95.50
2023-01-13T03:59:16.986Z,95.50
2023-01-13T03:59:52.798Z,95.50
2023-01-13T04:00:36.332Z,95.50
2023-01-13T04:01:16.953Z,95.40
2023-01-13T04:02:05.381Z,95.40
2023-01-13T04:02:44.579Z,95.40
2023-01-13T04:03:49.106Z,95.70
2023-01-13T04:04:32.827Z,95.40
2023-01-13T04:05:09.795Z,95.50
2023-01-13T04:05:48.814Z,95.50
2023-01-13T04:06:35.912Z,95.50
2023-01-13T04:07:25.915Z,95.50
2023-01-13T04:08:20.886Z,95.50
2023-01-13T04:09:12.894Z,95.50
2023-01-13T04:09:55.297Z,95.50
2023-01-13T04:10:44.752Z,95.50
2023-01-13T04:11:28.077Z,95.50
2023-01-13T04:12:20.504Z,95.80
2023-01-13T04:13:01.342Z,95.40
2023-01-13T04:13:39.632Z,95.60
2023-01-13T04:14:15.155Z,95.50
2023-01-13T04:14:47.644Z,95.50
2023-01-13T04:15:23.886Z,95.50
2023-01-13T04:15:56.028Z,95.50
2023-01-13T04:16:28.240Z,95.50
2023-01-13T04:17:00.254Z,95.50
2023-01-13T04:17:32.249Z,95.80
2023-01-13T04:18:13.460Z,95.50
2023-01-13T04:18:45.297Z,95.50
2023-01-13T04:19:17.093Z,95.70
2023-01-13T04:19:48.894Z,95.40
2023-01-13T04:20:21.585Z,95.40
2023-01-13T04:20:57.496Z,95.40
2023-01-13T04:21:30.655Z,95.70
2023-01-13T04:22:02.571Z,95.40
2023-01-13T04:22:34.341Z,95.50
2023-01-13T04:23:07.226Z,95.40
2023-01-13T04:23:39.066Z,95.40
2023-01-13T04:24:10.970Z,95.40
2023-01-13T04:24:42.738Z,95.40
2023-01-13T04:25:14.503Z,95.40
2023-01-13T04:25:47.442Z,95.40
2023-01-13T04:26:19.696Z,95.40
2023-01-13T04:26:51.749Z,95.40
2023-01-13T04:27:23.599Z,95.70
2023-01-13T04:27:55.401Z,95.40
2023-01-13T04:28:27.580Z,95.40
2023-01-13T04:28:59.395Z,95.40
2023-01-13T04:29:31.201Z,95.40
2023-01-13T04:30:04.498Z,95.50
2023-01-13T04:30:36.997Z,95.40
2023-01-13T04:31:09.028Z,95.40
2023-01-13T04:31:40.836Z,95.40
2023-01-13T04:32:12.708Z,95.40
2023-01-13T04:32:44.569Z,95.40
2023-01-13T04:33:18.083Z,95.40
2023-01-13T04:33:49.839Z,95.40
2023-01-13T04:34:21.917Z,95.40
2023-01-13T04:34:54.131Z,95.40
2023-01-13T04:35:26.107Z,95.40
2023-01-13T04:35:57.862Z,96.00
2023-01-13T04:36:29.687Z,95.40
2023-01-13T04:37:01.469Z,95.40
2023-01-13T04:37:33.724Z,95.40
2023-01-13T04:38:19.591Z,95.40
2023-01-13T04:38:51.620Z,95.40
2023-01-13T04:39:23.455Z,95.50
2023-01-13T04:39:55.253Z,95.50
2023-01-13T04:40:27.140Z,95.50
2023-01-13T04:40:58.952Z,95.50
2023-01-13T04:41:50.724Z,95.50
2023-01-13T04:42:22.502Z,95.50
2023-01-13T04:42:54.839Z,95.60
2023-01-13T04:43:26.670Z,95.50
2023-01-13T04:43:58.515Z,95.50
2023-01-13T04:44:35.422Z,95.50
2023-01-13T04:45:09.018Z,95.90
2023-01-13T04:45:41.584Z,95.50
2023-01-13T04:46:13.576Z,95.70
2023-01-13T04:46:45.464Z,95.50
2023-01-13T04:47:17.252Z,95.50
2023-01-13T04:47:49.163Z,95.50
2023-01-13T04:48:20.929Z,95.50
2023-01-13T04:48:52.708Z,95.50
2023-01-13T04:49:24.701Z,95.60
2023-01-13T04:49:56.518Z,95.50
2023-01-13T04:50:28.399Z,95.90
2023-01-13T04:51:00.613Z,95.50
2023-01-13T04:51:32.369Z,95.60
2023-01-13T04:52:06.926Z,95.50
2023-01-13T04:52:39.143Z,95.50
2023-01-13T04:53:11.020Z,95.50
2023-01-13T04:53:42.815Z,95.50
2023-01-13T04:54:16.127Z,95.50
2023-01-13T04:54:48.016Z,95.50
2023-01-13T04:55:25.706Z,95.60
2023-01-13T04:55:57.511Z,95.50
2023-01-13T04:56:29.251Z,95.50
2023-01-13T04:57:01.124Z,95.50
2023-01-13T04:57:34.894Z,95.50
2023-01-13T04:58:09.307Z,95.40
2023-01-13T04:58:41.092Z,95.60
2023-01-13T04:59:13.952Z,95.60
2023-01-13T04:59:45.801Z,95.50
2023-01-13T05:00:19.909Z,95.50
2023-01-13T05:00:52.026Z,95.50
2023-01-13T05:01:24.048Z,96.10
2023-01-13T05:01:56.118Z,95.50
2023-01-13T05:02:28.252Z,95.50
2023-01-13T05:03:00.184Z,95.50
2023-01-13T05:03:31.992Z,95.80
2023-01-13T05:04:04.238Z,95.50
2023-01-13T05:04:36.231Z,95.50
2023-01-13T05:05:09.019Z,95.50
2023-01-13T05:05:41.090Z,95.50
2023-01-13T05:06:12.910Z,95.50
2023-01-13T05:06:44.747Z,95.60
2023-01-13T05:07:16.775Z,95.60
2023-01-13T05:07:48.673Z,95.50
2023-01-13T05:08:20.514Z,95.50
2023-01-13T05:08:52.339Z,95.50
2023-01-13T05:09:24.080Z,95.50
2023-01-13T05:09:55.944Z,95.60
2023-01-13T05:10:28.296Z,95.50
2023-01-13T05:11:00.949Z,95.50
2023-01-13T05:11:52.460Z,95.50
2023-01-13T05:12:43.410Z,95.50
2023-01-13T05:13:33.914Z,95.50
2023-01-13T05:14:24.566Z,95.50
2023-01-13T05:15:15.010Z,95.50
2023-01-13T05:16:22.081Z,95.50
2023-01-13T05:17:02.456Z,95.50
2023-01-13T05:17:35.322Z,95.60
2023-01-13T05:18:07.497Z,95.90
2023-01-13T05:18:39.334Z,95.50
2023-01-13T05:19:11.563Z,95.50
2023-01-13T05:19:43.390Z,95.90
2023-01-13T05:20:15.486Z,95.80
2023-01-13T05:20:47.410Z,95.60
2023-01-13T05:21:37.727Z,95.50
2023-01-13T05:22:28.188Z,95.70
2023-01-13T05:23:18.519Z,95.60
2023-01-13T05:24:09.052Z,95.60
2023-01-13T05:24:59.677Z,95.50
2023-01-13T05:25:31.432Z,95.70
2023-01-13T05:26:03.407Z,95.60
2023-01-13T05:26:35.178Z,95.60
2023-01-13T05:27:06.988Z,95.60
2023-01-13T05:27:38.774Z,96.00
2023-01-13T05:28:10.636Z,95.60
2023-01-13T05:28:42.371Z,95.70
2023-01-13T05:29:14.169Z,95.50
2023-01-13T05:29:45.915Z,95.50
2023-01-13T05:30:18.357Z,96.00
2023-01-13T05:30:51.119Z,95.50
2023-01-13T05:31:23.052Z,95.60
2023-01-13T05:31:54.920Z,95.50
2023-01-13T05:32:28.072Z,95.60
2023-01-13T05:32:59.892Z,95.30
2023-01-13T05:33:32.394Z,95.60
2023-01-13T05:34:04.961Z,96.10
2023-01-13T05:34:37.145Z,96.20
2023-01-13T05:35:09.188Z,96.20
2023-01-13T05:35:42.426Z,95.50
2023-01-13T05:36:14.208Z,95.50
2023-01-13T05:36:45.956Z,95.50
2023-01-13T05:37:17.705Z,95.00
2023-01-13T05:37:49.534Z,95.00
2023-01-13T05:38:21.944Z,95.60
2023-01-13T05:38:53.786Z,95.60
2023-01-13T05:39:26.686Z,95.60
2023-01-13T05:40:16.920Z,95.60
2023-01-13T05:41:07.356Z,95.70
2023-01-13T05:41:57.934Z,95.60
2023-01-13T05:42:48.590Z,95.60
2023-01-13T05:43:22.646Z,96.00
2023-01-13T05:43:54.388Z,95.60
2023-01-13T05:44:26.170Z,95.60
2023-01-13T05:45:00.957Z,95.60
2023-01-13T05:45:32.851Z,95.60
2023-01-13T05:46:09.594Z,95.70
2023-01-13T05:46:41.880Z,95.60
2023-01-13T05:47:13.758Z,95.70
2023-01-13T05:47:45.598Z,95.90
2023-01-13T05:48:19.386Z,95.60
2023-01-13T05:48:51.237Z,95.90
2023-01-13T05:49:23.088Z,95.60
2023-01-13T05:49:54.987Z,95.60
2023-01-13T05:50:26.993Z,95.60
2023-01-13T05:50:59.376Z,95.70
2023-01-13T05:51:31.381Z,95.70
2023-01-13T05:52:03.401Z,95.60
2023-01-13T05:52:35.458Z,95.70
2023-01-13T05:53:07.296Z,95.70
2023-01-13T05:53:42.455Z,95.60
2023-01-13T05:54:14.293Z,95.70
2023-01-13T05:54:46.130Z,95.60
2023-01-13T05:55:18.286Z,95.70
2023-01-13T05:55:50.563Z,95.60
2023-01-13T05:56:22.353Z,95.60
2023-01-13T05:56:54.125Z,95.70
2023-01-13T05:57:25.964Z,95.70
2023-01-13T05:57:57.746Z,95.70
2023-01-13T05:58:29.565Z,95.70
2023-01-13T05:59:01.299Z,95.70
2023-01-13T05:59:33.100Z,95.80
2023-01-13T06:00:05.868Z,95.80
2023-01-13T06:00:43.730Z,95.70
2023-01-13T06:01:16.887Z,95.70
2023-01-13T06:01:48.647Z,95.70
2023-01-13T06:02:20.478Z,95.70
2023-01-13T06:02:52.724Z,96.00
2023-01-13T06:03:24.627Z,95.70
2023-01-13T06:03:56.440Z,95.70
2023-01-13T06:04:28.196Z,95.80
2023-01-13T06:04:59.975Z,95.70
2023-01-13T06:05:32.423Z,95.80
2023-01-13T06:06:05.139Z,95.80
2023-01-13T06:06:36.989Z,95.80
2023-01-13T06:07:08.911Z,95.80
2023-01-13T06:07:43.872Z,95.80
2023-01-13T06:08:15.675Z,95.80
2023-01-13T06:08:47.442Z,95.70
2023-01-13T06:09:21.025Z,95.70
2023-01-13T06:09:52.915Z,95.80
2023-01-13T06:10:25.750Z,95.80
2023-01-13T06:10:57.632Z,95.80
2023-01-13T06:11:29.464Z,95.90
2023-01-13T06:12:01.382Z,95.80
2023-01-13T06:12:33.599Z,95.80
2023-01-13T06:13:05.974Z,95.80
2023-01-13T06:13:37.759Z,95.80
2023-01-13T06:14:09.665Z,96.30
2023-01-13T06:14:41.598Z,96.50
2023-01-13T06:15:13.433Z,96.00
2023-01-13T06:15:45.199Z,95.90
2023-01-13T06:16:17.133Z,95.90
2023-01-13T06:16:49.028Z,96.10
2023-01-13T06:17:20.750Z,95.90
2023-01-13T06:17:52.618Z,96.00
2023-01-13T06:18:24.976Z,96.00
2023-01-13T06:18:56.815Z,96.00
2023-01-13T06:19:28.594Z,96.00
2023-01-13T06:20:00.475Z,96.10
2023-01-13T06:20:32.394Z,96.00
2023-01-13T06:21:04.853Z,96.00
2023-01-13T06:21:36.600Z,96.00
2023-01-13T06:22:08.841Z,96.00
2023-01-13T06:22:44.333Z,96.50
2023-01-13T06:23:16.142Z,96.10
2023-01-13T06:23:47.901Z,96.00
2023-01-13T06:24:19.847Z,96.10
2023-01-13T06:24:56.623Z,96.40
2023-01-13T06:25:59.687Z,96.20
2023-01-13T06:26:39.124Z,96.10
2023-01-13T06:27:11.018Z,96.10
2023-01-13T06:27:43.062Z,95.70
2023-01-13T06:28:15.040Z,96.30
2023-01-13T06:28:46.835Z,96.20
2023-01-13T06:29:18.615Z,96.20
2023-01-13T06:29:50.709Z,96.20
2023-01-13T06:30:22.586Z,96.20
2023-01-13T06:30:59.819Z,96.30
2023-01-13T06:31:33.814Z,96.30
2023-01-13T06:32:14.968Z,96.30
2023-01-13T06:32:52.144Z,96.20
2023-01-13T06:33:32.541Z,96.30
2023-01-13T06:34:11.857Z,96.30
2023-01-13T06:34:51.934Z,96.20
2023-01-13T06:35:28.707Z,96.20
2023-01-13T06:36:05.972Z,96.30
2023-01-13T06:36:43.697Z,96.30
2023-01-13T06:37:20.837Z,96.30
2023-01-13T06:37:57.364Z,96.30
2023-01-13T06:38:34.296Z,96.30
2023-01-13T06:39:08.187Z,96.40
2023-01-13T06:39:40.959Z,96.50
2023-01-13T06:40:15.051Z,96.70
2023-01-13T06:40:47.660Z,96.40
2023-01-13T06:41:41.126Z,96.30
2023-01-13T06:42:31.702Z,96.40
2023-01-13T06:43:16.810Z,96.40
2023-01-13T06:43:48.922Z,96.40
2023-01-13T06:44:23.386Z,96.50
2023-01-13T06:44:55.426Z,96.90
2023-01-13T06:45:30.350Z,96.50
2023-01-13T06:46:03.075Z,96.50
2023-01-13T06:46:35.718Z,96.50
2023-01-13T06:47:07.772Z,96.50
2023-01-13T06:47:39.972Z,96.70
2023-01-13T06:48:11.917Z,96.50
2023-01-13T06:48:43.700Z,96.50
2023-01-13T06:49:15.429Z,96.50
2023-01-13T06:49:47.637Z,96.60
2023-01-13T06:50:19.430Z,96.60
2023-01-13T06:50:51.627Z,96.70
2023-01-13T06:51:23.471Z,96.60
2023-01-13T06:51:55.237Z,96.60
2023-01-13T06:52:30.333Z,96.60
2023-01-13T06:53:02.143Z,96.60
2023-01-13T06:53:33.941Z,96.60
2023-01-13T06:54:05.801Z,96.90
2023-01-13T06:54:37.571Z,96.60
2023-01-13T06:55:09.499Z,96.70
2023-01-13T06:55:41.542Z,97.20
2023-01-13T06:56:13.301Z,96.60
2023-01-13T06:56:45.117Z,96.60
2023-01-13T06:57:16.915Z,96.70
2023-01-13T06:57:57.550Z,96.60
2023-01-13T06:58:29.400Z,96.60
2023-01-13T06:59:01.158Z,96.70
2023-01-13T06:59:35.158Z,97.10
2023-01-13T07:00:07.703Z,96.70
2023-01-13T07:00:39.623Z,96.70
2023-01-13T07:01:12.048Z,96.70
2023-01-13T07:01:44.183Z,96.70
2023-01-13T07:02:16.604Z,96.70
2023-01-13T07:02:48.565Z,96.70
2023-01-13T07:03:20.620Z,96.70
2023-01-13T07:03:52.421Z,96.70
2023-01-13T07:04:24.416Z,97.10
2023-01-13T07:04:56.304Z,96.70
2023-01-13T07:05:28.095Z,96.70
2023-01-13T07:06:01.748Z,96.70
2023-01-13T07:06:33.503Z,96.70
2023-01-13T07:07:07.883Z,96.80
2023-01-13T07:07:39.857Z,96.80
2023-01-13T07:08:11.636Z,96.80
2023-01-13T07:08:43.401Z,97.20
2023-01-13T07:09:15.199Z,96.80
2023-01-13T07:09:46.976Z,96.80
2023-01-13T07:10:22.058Z,96.80
2023-01-13T07:10:54.307Z,96.80
2023-01-13T07:11:26.108Z,96.80
2023-01-13T07:11:57.891Z,97.00
2023-01-13T07:12:29.745Z,97.10
2023-01-13T07:13:21.774Z,96.80
2023-01-13T07:14:12.360Z,96.80
2023-01-13T07:15:03.068Z,96.80
2023-01-13T07:15:35.363Z,96.80
2023-01-13T07:16:08.907Z,97.20
2023-01-13T07:16:41.278Z,96.80
2023-01-13T07:17:13.092Z,96.80
2023-01-13T07:17:44.824Z,96.90
2023-01-13T07:18:16.592Z,96.90
2023-01-13T07:18:49.581Z,96.90
2023-01-13T07:19:23.815Z,96.80
2023-01-13T07:19:55.746Z,96.80
2023-01-13T07:20:27.970Z,97.30
2023-01-13T07:21:02.277Z,97.00
2023-01-13T07:21:34.158Z,96.80
2023-01-13T07:22:05.916Z,97.40
2023-01-13T07:22:37.750Z,96.90
2023-01-13T07:23:09.546Z,97.00
2023-01-13T07:23:41.882Z,96.80
2023-01-13T07:24:13.657Z,96.80
2023-01-13T07:24:45.470Z,96.80
2023-01-13T07:25:17.271Z,96.80
2023-01-13T07:25:49.427Z,97.20
2023-01-13T07:26:21.176Z,96.90
2023-01-13T07:26:53.396Z,96.90
2023-01-13T07:27:25.203Z,96.90
2023-01-13T07:27:58.317Z,97.00
2023-01-13T07:28:30.958Z,97.00
2023-01-13T07:29:02.798Z,96.90
2023-01-13T07:29:34.567Z,97.10
2023-01-13T07:30:07.660Z,96.90
2023-01-13T07:30:39.397Z,96.90
2023-01-13T07:31:21.071Z,97.50
2023-01-13T07:31:53.026Z,96.90
2023-01-13T07:32:24.827Z,96.90
2023-01-13T07:32:56.604Z,96.90
2023-01-13T07:33:28.374Z,96.90
2023-01-13T07:34:00.180Z,96.90
2023-01-13T07:34:32.021Z,96.90
2023-01-13T07:35:06.816Z,96.90
2023-01-13T07:35:38.742Z,96.90
2023-01-13T07:36:11.793Z,96.90
2023-01-13T07:36:43.533Z,96.90
2023-01-13T07:37:15.283Z,97.00
2023-01-13T07:37:48.501Z,96.90
2023-01-13T07:38:20.266Z,96.90
2023-01-13T07:38:54.692Z,97.10
2023-01-13T07:39:28.772Z,97.00
2023-01-13T07:40:01.305Z,96.90
2023-01-13T07:40:33.046Z,97.00
2023-01-13T07:41:23.297Z,97.00
2023-01-13T07:42:24.539Z,97.00
2023-01-13T07:43:16.661Z,97.00
2023-01-13T07:43:48.478Z,97.00
2023-01-13T07:44:20.267Z,97.00
2023-01-13T07:44:52.094Z,96.90
2023-01-13T07:45:24.013Z,96.90
2023-01-13T07:45:58.563Z,96.90
2023-01-13T07:46:31.048Z,96.90
2023-01-13T07:47:02.807Z,97.00
2023-01-13T07:47:34.573Z,96.90